sensor_id;sensor_type;location;lat;lon;timestamp;pressure;altitude;pressure_sealevel;temperature;humidity
13734;BME280;43298;52.560;13.508;2023-02-13T00:00:33;103128.53;;;7.67;100.00
13734;BME280;43298;52.560;13.508;2023-02-13T00:02:59;103126.84;;;7.66;100.00
13734;BME280;43298;52.560;13.508;2023-02-13T00:05:25;103125.94;;;7.64;100.00
13734;BME280;43298;52.560;13.508;2023-02-13T00:07:51;103125.09;;;7.62;100.00
13734;BME280;43298;52.560;13.508;2023-02-13T00:10:17;103125.09;;;7.62;100.00
13734;BME280;43298;52.560;13.508;2023-02-13T00:12:42;103128.44;;;7.57;100.00
13734;BME280;43298;52.560;13.508;2023-02-13T00:15:08;103120.72;;;7.55;100.00
13734;BME280;43298;52.560;13.508;2023-02-13T00:17:35;103120.69;;;7.51;100.00
13734;BME280;43298;52.560;13.508;2023-02-13T00:20:01;103126.66;;;7.48;100.00
13734;BME280;43298;52.560;13.508;2023-02-13T00:22:27;103119.78;;;7.47;100.00
13734;BME280;43298;52.560;13.508;2023-02-13T00:24:53;103121.50;;;7.45;100.00
13734;BME280;43298;52.560;13.508;2023-02-13T00:27:18;103125.75;;;7.45;100.00
13734;BME280;43298;52.560;13.508;2023-02-13T00:29:44;103120.56;;;7.40;100.00
13734;BME280;43298;52.560;13.508;2023-02-13T00:32:10;103130.84;;;7.40;100.00
13734;BME280;43298;52.560;13.508;2023-02-13T00:34:36;103117.16;;;7.40;100.00
13734;BME280;43298;52.560;13.508;2023-02-13T00:37:02;103116.31;;;7.42;100.00
13734;BME280;43298;52.560;13.508;2023-02-13T00:39:28;103127.47;;;7.44;100.00
13734;BME280;43298;52.560;13.508;2023-02-13T00:41:54;103123.19;;;7.46;100.00
13734;BME280;43298;52.560;13.508;2023-02-13T00:44:19;103130.94;;;7.46;100.00
13734;BME280;43298;52.560;13.508;2023-02-13T00:46:45;103125.78;;;7.46;100.00
13734;BME280;43298;52.560;13.508;2023-02-13T00:49:11;103136.00;;;7.40;100.00
13734;BME280;43298;52.560;13.508;2023-02-13T00:51:37;103121.47;;;7.44;100.00
13734;BME280;43298;52.560;13.508;2023-02-13T00:54:03;103128.31;;;7.43;100.00
13734;BME280;43298;52.560;13.508;2023-02-13T00:56:28;103132.59;;;7.44;100.00
13734;BME280;43298;52.560;13.508;2023-02-13T00:58:54;103135.19;;;7.44;100.00
13734;BME280;43298;52.560;13.508;2023-02-13T01:01:20;103138.59;;;7.42;100.00
13734;BME280;43298;52.560;13.508;2023-02-13T01:03:46;103139.44;;;7.39;100.00
13734;BME280;43298;52.560;13.508;2023-02-13T01:06:12;103145.41;;;7.35;100.00
13734;BME280;43298;52.560;13.508;2023-02-13T01:08:39;103145.41;;;7.35;100.00
13734;BME280;43298;52.560;13.508;2023-02-13T01:11:06;103154.78;;;7.32;100.00
13734;BME280;43298;52.560;13.508;2023-02-13T01:13:32;103158.19;;;7.29;100.00
13734;BME280;43298;52.560;13.508;2023-02-13T01:15:59;103154.75;;;7.26;100.00
13734;BME280;43298;52.560;13.508;2023-02-13T01:18:25;103150.38;;;7.17;100.00
13734;BME280;43298;52.560;13.508;2023-02-13T01:21:05;103162.50;;;7.27;100.00
13734;BME280;43298;52.560;13.508;2023-02-13T01:23:36;103153.91;;;7.28;100.00
13734;BME280;43298;52.560;13.508;2023-02-13T01:26:05;103159.91;;;7.26;100.00
13734;BME280;43298;52.560;13.508;2023-02-13T01:28:31;103158.16;;;7.25;100.00
13734;BME280;43298;52.560;13.508;2023-02-13T01:30:58;103162.47;;;7.26;100.00
13734;BME280;43298;52.560;13.508;2023-02-13T01:33:25;103164.16;;;7.24;100.00
13734;BME280;43298;52.560;13.508;2023-02-13T01:35:52;103164.13;;;7.22;100.00
13734;BME280;43298;52.560;13.508;2023-02-13T01:38:18;103153.81;;;7.18;100.00
13734;BME280;43298;52.560;13.508;2023-02-13T01:40:50;103151.19;;;7.13;100.00
13734;BME280;43298;52.560;13.508;2023-02-13T01:43:16;103147.72;;;7.13;100.00
13734;BME280;43298;52.560;13.508;2023-02-13T01:45:46;103140.06;;;7.17;100.00
13734;BME280;43298;52.560;13.508;2023-02-13T01:48:24;103134.06;;;7.17;100.00
13734;BME280;43298;52.560;13.508;2023-02-13T01:50:56;103130.66;;;7.18;100.00
13734;BME280;43298;52.560;13.508;2023-02-13T01:53:44;103135.81;;;7.18;100.00
13734;BME280;43298;52.560;13.508;2023-02-13T01:56:41;103117.72;;;7.12;100.00
13734;BME280;43298;52.560;13.508;2023-02-13T01:59:18;103127.13;;;7.10;100.00
13734;BME280;43298;52.560;13.508;2023-02-13T02:01:44;103116.78;;;7.04;100.00
13734;BME280;43298;52.560;13.508;2023-02-13T02:04:22;103114.16;;;6.99;100.00
13734;BME280;43298;52.560;13.508;2023-02-13T02:07:01;103116.69;;;6.96;100.00
13734;BME280;43298;52.560;13.508;2023-02-13T02:09:36;103110.66;;;6.94;100.00
13734;BME280;43298;52.560;13.508;2023-02-13T02:12:41;103106.34;;;6.93;100.00
13734;BME280;43298;52.560;13.508;2023-02-13T02:15:08;103102.91;;;6.90;100.00
13734;BME280;43298;52.560;13.508;2023-02-13T02:17:34;103097.81;;;6.96;100.00
13734;BME280;43298;52.560;13.508;2023-02-13T02:26:14;103096.06;;;6.93;100.00
13734;BME280;43298;52.560;13.508;2023-02-13T02:32:41;103093.41;;;6.87;100.00
13734;BME280;43298;52.560;13.508;2023-02-13T02:35:36;103087.44;;;6.88;100.00
13734;BME280;43298;52.560;13.508;2023-02-13T02:41:19;103094.25;;;6.85;100.00
13734;BME280;43298;52.560;13.508;2023-02-13T02:44:31;103097.66;;;6.82;100.00
13734;BME280;43298;52.560;13.508;2023-02-13T02:47:31;103089.06;;;6.80;100.00
13734;BME280;43298;52.560;13.508;2023-02-13T02:50:40;103094.19;;;6.80;100.00
13734;BME280;43298;52.560;13.508;2023-02-13T02:55:57;103089.97;;;6.85;100.00
13734;BME280;43298;52.560;13.508;2023-02-13T02:59:12;103090.84;;;6.84;100.00
13734;BME280;43298;52.560;13.508;2023-02-13T03:02:00;103082.19;;;6.79;100.00
13734;BME280;43298;52.560;13.508;2023-02-13T03:04:52;103083.00;;;6.75;100.00
13734;BME280;43298;52.560;13.508;2023-02-13T03:07:37;103089.84;;;6.75;100.00
13734;BME280;43298;52.560;13.508;2023-02-13T03:10:14;103084.69;;;6.75;100.00
13734;BME280;43298;52.560;13.508;2023-02-13T03:13:08;103087.28;;;6.76;100.00
13734;BME280;43298;52.560;13.508;2023-02-13T03:15:57;103088.09;;;6.72;100.00
13734;BME280;43298;52.560;13.508;2023-02-13T03:18:46;103082.94;;;6.71;100.00
13734;BME280;43298;52.560;13.508;2023-02-13T03:21:58;103088.09;;;6.71;100.00
13734;BME280;43298;52.560;13.508;2023-02-13T03:25:02;103088.09;;;6.71;100.00
13734;BME280;43298;52.560;13.508;2023-02-13T03:40:04;103082.91;;;6.65;100.00
13734;BME280;43298;52.560;13.508;2023-02-13T03:42:46;103081.13;;;6.62;100.00
13734;BME280;43298;52.560;13.508;2023-02-13T03:45:22;103080.31;;;6.63;100.00
13734;BME280;43298;52.560;13.508;2023-02-13T03:48:11;103069.16;;;6.63;100.00
13734;BME280;43298;52.560;13.508;2023-02-13T03:50:59;103067.41;;;6.60;100.00
13734;BME280;43298;52.560;13.508;2023-02-13T03:53:30;103067.41;;;6.60;100.00
13734;BME280;43298;52.560;13.508;2023-02-13T03:55:58;103068.34;;;6.67;100.00
13734;BME280;43298;52.560;13.508;2023-02-13T03:58:52;103064.91;;;6.66;100.00
13734;BME280;43298;52.560;13.508;2023-02-13T04:01:38;103059.88;;;6.77;100.00
13734;BME280;43298;52.560;13.508;2023-02-13T04:04:30;103058.22;;;6.82;100.00
13734;BME280;43298;52.560;13.508;2023-02-13T04:07:07;103049.63;;;6.80;100.00
13734;BME280;43298;52.560;13.508;2023-02-13T04:09:40;103055.63;;;6.77;100.00
13734;BME280;43298;52.560;13.508;2023-02-13T04:12:20;103047.06;;;6.80;100.00
13734;BME280;43298;52.560;13.508;2023-02-13T04:15:30;103040.19;;;6.80;100.00
13734;BME280;43298;52.560;13.508;2023-02-13T04:18:24;103034.19;;;6.77;100.00
13734;BME280;43298;52.560;13.508;2023-02-13T04:20:51;103038.44;;;6.76;100.00
13734;BME280;43298;52.560;13.508;2023-02-13T04:23:18;103041.84;;;6.74;100.00
13734;BME280;43298;52.560;13.508;2023-02-13T04:25:49;103049.53;;;6.71;100.00
13734;BME280;43298;52.560;13.508;2023-02-13T04:28:16;103045.19;;;6.65;100.00
13734;BME280;43298;52.560;13.508;2023-02-13T04:30:42;103046.94;;;6.69;100.00
13734;BME280;43298;52.560;13.508;2023-02-13T04:33:08;103048.63;;;6.67;100.00
13734;BME280;43298;52.560;13.508;2023-02-13T04:35:34;103043.53;;;6.70;100.00
13734;BME280;43298;52.560;13.508;2023-02-13T04:38:00;103048.72;;;6.73;100.00
13734;BME280;43298;52.560;13.508;2023-02-13T04:40:26;103039.25;;;6.72;100.00
13734;BME280;43298;52.560;13.508;2023-02-13T04:42:52;103028.94;;;6.66;100.00
13734;BME280;43298;52.560;13.508;2023-02-13T04:45:18;103028.13;;;6.72;100.00
13734;BME280;43298;52.560;13.508;2023-02-13T04:47:53;103023.00;;;6.76;100.00
13734;BME280;43298;52.560;13.508;2023-02-13T04:50:20;103025.59;;;6.76;100.00
13734;BME280;43298;52.560;13.508;2023-02-13T04:52:46;103029.91;;;6.80;100.00
13734;BME280;43298;52.560;13.508;2023-02-13T04:55:13;103032.47;;;6.77;100.00
13734;BME280;43298;52.560;13.508;2023-02-13T04:57:39;103029.91;;;6.77;100.00
13734;BME280;43298;52.560;13.508;2023-02-13T05:00:06;103028.22;;;6.81;100.00
13734;BME280;43298;52.560;13.508;2023-02-13T05:02:32;103034.22;;;6.81;100.00
13734;BME280;43298;52.560;13.508;2023-02-13T05:04:58;103035.06;;;6.80;100.00
13734;BME280;43298;52.560;13.508;2023-02-13T05:07:23;103035.06;;;6.77;100.00
13734;BME280;43298;52.560;13.508;2023-02-13T05:09:49;103043.59;;;6.78;100.00
13734;BME280;43298;52.560;13.508;2023-02-13T05:12:15;103041.88;;;6.75;100.00
13734;BME280;43298;52.560;13.508;2023-02-13T05:14:41;103043.59;;;6.76;100.00
13734;BME280;43298;52.560;13.508;2023-02-13T05:17:06;103044.44;;;6.75;100.00
13734;BME280;43298;52.560;13.508;2023-02-13T05:19:32;103044.41;;;6.74;100.00
13734;BME280;43298;52.560;13.508;2023-02-13T05:21:58;103043.56;;;6.73;100.00
13734;BME280;43298;52.560;13.508;2023-02-13T05:24:42;103045.28;;;6.74;100.00
13734;BME280;43298;52.560;13.508;2023-02-13T05:27:08;103049.56;;;6.74;100.00
13734;BME280;43298;52.560;13.508;2023-02-13T05:29:34;103047.81;;;6.71;100.00
13734;BME280;43298;52.560;13.508;2023-02-13T05:32:00;103049.50;;;6.69;100.00
13734;BME280;43298;52.560;13.508;2023-02-13T05:34:27;103047.78;;;6.68;100.00
13734;BME280;43298;52.560;13.508;2023-02-13T05:36:54;103050.41;;;6.71;100.00
13734;BME280;43298;52.560;13.508;2023-02-13T05:39:20;103045.25;;;6.71;100.00
13734;BME280;43298;52.560;13.508;2023-02-13T05:41:47;103035.81;;;6.69;100.00
13734;BME280;43298;52.560;13.508;2023-02-13T05:44:14;103045.25;;;6.71;100.00
13734;BME280;43298;52.560;13.508;2023-02-13T05:46:41;103041.88;;;6.75;100.00
13734;BME280;43298;52.560;13.508;2023-02-13T05:49:11;103040.19;;;6.77;100.00
13734;BME280;43298;52.560;13.508;2023-02-13T05:51:37;103048.75;;;6.79;100.00
13734;BME280;43298;52.560;13.508;2023-02-13T05:54:03;103047.94;;;6.82;100.00
13734;BME280;43298;52.560;13.508;2023-02-13T05:56:29;103056.53;;;6.84;100.00
13734;BME280;43298;52.560;13.508;2023-02-13T05:58:56;103070.22;;;6.80;100.00
13734;BME280;43298;52.560;13.508;2023-02-13T06:01:22;103060.75;;;6.76;100.00
13734;BME280;43298;52.560;13.508;2023-02-13T06:03:49;103065.00;;;6.74;100.00
13734;BME280;43298;52.560;13.508;2023-02-13T06:06:15;103065.03;;;6.77;100.00
13734;BME280;43298;52.560;13.508;2023-02-13T06:08:41;103072.72;;;6.75;100.00
13734;BME280;43298;52.560;13.508;2023-02-13T06:11:07;103074.41;;;6.75;100.00
13734;BME280;43298;52.560;13.508;2023-02-13T06:13:33;103083.03;;;6.78;100.00
13734;BME280;43298;52.560;13.508;2023-02-13T06:15:59;103074.44;;;6.76;100.00
13734;BME280;43298;52.560;13.508;2023-02-13T06:18:25;103078.75;;;6.77;100.00
13734;BME280;43298;52.560;13.508;2023-02-13T06:20:51;103074.41;;;6.75;100.00
13734;BME280;43298;52.560;13.508;2023-02-13T06:23:17;103077.88;;;6.77;100.00
13734;BME280;43298;52.560;13.508;2023-02-13T06:25:43;103077.88;;;6.75;100.00
13734;BME280;43298;52.560;13.508;2023-02-13T06:28:08;103071.03;;;6.76;100.00
13734;BME280;43298;52.560;13.508;2023-02-13T06:30:34;103077.88;;;6.75;100.00
13734;BME280;43298;52.560;13.508;2023-02-13T06:33:00;103082.13;;;6.75;100.00
13734;BME280;43298;52.560;13.508;2023-02-13T06:35:26;103074.38;;;6.70;100.00
13734;BME280;43298;52.560;13.508;2023-02-13T06:37:52;103077.78;;;6.69;100.00
13734;BME280;43298;52.560;13.508;2023-02-13T06:40:18;103079.56;;;6.72;100.00
13734;BME280;43298;52.560;13.508;2023-02-13T06:42:45;103077.78;;;6.66;100.00
13734;BME280;43298;52.560;13.508;2023-02-13T06:45:12;103094.00;;;6.64;100.00
13734;BME280;43298;52.560;13.508;2023-02-13T06:47:43;103094.88;;;6.64;100.00
13734;BME280;43298;52.560;13.508;2023-02-13T06:50:10;103090.53;;;6.59;100.00
13734;BME280;43298;52.560;13.508;2023-02-13T06:52:36;103098.28;;;6.63;100.00
13734;BME280;43298;52.560;13.508;2023-02-13T06:55:02;103106.81;;;6.62;100.00
13734;BME280;43298;52.560;13.508;2023-02-13T06:57:30;103110.31;;;6.66;100.00
13734;BME280;43298;52.560;13.508;2023-02-13T07:00:01;103106.88;;;6.65;100.00
13734;BME280;43298;52.560;13.508;2023-02-13T07:02:31;103105.25;;;6.70;100.00
13734;BME280;43298;52.560;13.508;2023-02-13T07:04:58;103107.03;;;6.76;100.00
13734;BME280;43298;52.560;13.508;2023-02-13T07:07:24;103112.13;;;6.74;100.00
13734;BME280;43298;52.560;13.508;2023-02-13T07:09:50;103109.59;;;6.77;100.00
13734;BME280;43298;52.560;13.508;2023-02-13T07:12:15;103108.94;;;6.93;100.00
13734;BME280;43298;52.560;13.508;2023-02-13T07:14:41;103101.22;;;6.93;100.00
13734;BME280;43298;52.560;13.508;2023-02-13T07:17:07;103108.06;;;6.91;100.00
13734;BME280;43298;52.560;13.508;2023-02-13T07:19:35;103119.28;;;6.99;100.00
13734;BME280;43298;52.560;13.508;2023-02-13T07:22:01;103117.56;;;7.00;100.00
13734;BME280;43298;52.560;13.508;2023-02-13T07:24:27;103119.25;;;6.96;100.00
13734;BME280;43298;52.560;13.508;2023-02-13T07:26:52;103120.13;;;7.00;100.00
13734;BME280;43298;52.560;13.508;2023-02-13T07:29:18;103133.00;;;6.97;100.00
13734;BME280;43298;52.560;13.508;2023-02-13T07:31:44;103132.97;;;6.95;100.00
13734;BME280;43298;52.560;13.508;2023-02-13T07:34:10;103135.59;;;6.98;100.00
13734;BME280;43298;52.560;13.508;2023-02-13T07:36:35;103127.03;;;7.01;100.00
13734;BME280;43298;52.560;13.508;2023-02-13T07:39:01;103131.28;;;7.00;100.00
13734;BME280;43298;52.560;13.508;2023-02-13T07:41:27;103130.41;;;7.00;100.00
13734;BME280;43298;52.560;13.508;2023-02-13T07:43:53;103133.88;;;7.02;100.00
13734;BME280;43298;52.560;13.508;2023-02-13T07:46:19;103135.63;;;7.04;100.00
13734;BME280;43298;52.560;13.508;2023-02-13T07:48:45;103137.34;;;7.02;100.00
13734;BME280;43298;52.560;13.508;2023-02-13T07:51:10;103133.94;;;7.06;100.00
13734;BME280;43298;52.560;13.508;2023-02-13T07:53:36;103134.84;;;7.11;100.00
13734;BME280;43298;52.560;13.508;2023-02-13T07:56:07;103140.06;;;7.16;100.00
13734;BME280;43298;52.560;13.508;2023-02-13T07:58:34;103146.09;;;7.18;100.00
13734;BME280;43298;52.560;13.508;2023-02-13T08:01:09;103131.50;;;7.18;100.00
13734;BME280;43298;52.560;13.508;2023-02-13T08:03:36;103146.13;;;7.24;100.00
13734;BME280;43298;52.560;13.508;2023-02-13T08:06:03;103140.97;;;7.22;100.00
13734;BME280;43298;52.560;13.508;2023-02-13T08:08:29;103147.88;;;7.23;100.00
13734;BME280;43298;52.560;13.508;2023-02-13T08:10:56;103149.59;;;7.24;100.00
13734;BME280;43298;52.560;13.508;2023-02-13T08:13:41;103153.91;;;7.28;100.00
13734;BME280;43298;52.560;13.508;2023-02-13T08:16:08;103152.22;;;7.30;100.00
13734;BME280;43298;52.560;13.508;2023-02-13T08:18:34;103140.22;;;7.32;100.00
13734;BME280;43298;52.560;13.508;2023-02-13T08:21:03;103143.66;;;7.33;100.00
13734;BME280;43298;52.560;13.508;2023-02-13T08:23:29;103153.09;;;7.34;100.00
13734;BME280;43298;52.560;13.508;2023-02-13T08:25:58;103138.53;;;7.34;100.00
13734;BME280;43298;52.560;13.508;2023-02-13T08:28:24;103140.25;;;7.35;100.00
13734;BME280;43298;52.560;13.508;2023-02-13T08:30:50;103147.09;;;7.33;100.00
13734;BME280;43298;52.560;13.508;2023-02-13T08:33:16;103142.78;;;7.31;100.00
13734;BME280;43298;52.560;13.508;2023-02-13T08:35:41;103151.41;;;7.33;100.00
13734;BME280;43298;52.560;13.508;2023-02-13T08:38:08;103153.16;;;7.37;100.00
13734;BME280;43298;52.560;13.508;2023-02-13T08:40:34;103145.47;;;7.40;100.00
13734;BME280;43298;52.560;13.508;2023-02-13T08:43:02;103139.50;;;7.44;100.00
13734;BME280;43298;52.560;13.508;2023-02-13T08:45:28;103138.66;;;7.46;100.00
13734;BME280;43298;52.560;13.508;2023-02-13T08:47:58;103147.25;;;7.47;100.00
13734;BME280;43298;52.560;13.508;2023-02-13T08:50:26;103148.09;;;7.49;100.00
13734;BME280;43298;52.560;13.508;2023-02-13T08:52:52;103153.22;;;7.47;100.00
13734;BME280;43298;52.560;13.508;2023-02-13T08:55:18;103140.41;;;7.50;100.00
13734;BME280;43298;52.560;13.508;2023-02-13T08:57:45;103143.03;;;7.56;100.00
13734;BME280;43298;52.560;13.508;2023-02-13T09:00:11;103143.09;;;7.62;100.00
13734;BME280;43298;52.560;13.508;2023-02-13T09:02:37;103144.84;;;7.65;100.00
13734;BME280;43298;52.560;13.508;2023-02-13T09:05:03;103146.63;;;7.72;100.00
13734;BME280;43298;52.560;13.508;2023-02-13T09:07:29;103144.88;;;7.72;100.00
13734;BME280;43298;52.560;13.508;2023-02-13T09:09:55;103150.97;;;7.77;100.00
13734;BME280;43298;52.560;13.508;2023-02-13T09:12:20;103149.22;;;7.78;100.00
13734;BME280;43298;52.560;13.508;2023-02-13T09:14:47;103153.50;;;7.74;100.00
13734;BME280;43298;52.560;13.508;2023-02-13T09:17:13;103150.94;;;7.74;100.00
13734;BME280;43298;52.560;13.508;2023-02-13T09:19:42;103157.78;;;7.75;100.00
13734;BME280;43298;52.560;13.508;2023-02-13T09:22:08;103154.38;;;7.75;100.00
13734;BME280;43298;52.560;13.508;2023-02-13T09:24:34;103167.25;;;7.73;100.00
13734;BME280;43298;52.560;13.508;2023-02-13T09:27:00;103163.72;;;7.67;100.00
13734;BME280;43298;52.560;13.508;2023-02-13T09:29:25;103175.78;;;7.68;100.00
13734;BME280;43298;52.560;13.508;2023-02-13T09:31:55;103172.28;;;7.64;100.00
13734;BME280;43298;52.560;13.508;2023-02-13T09:34:21;103171.41;;;7.61;100.00
13734;BME280;43298;52.560;13.508;2023-02-13T09:36:52;103166.25;;;7.59;100.00
13734;BME280;43298;52.560;13.508;2023-02-13T09:39:18;103175.66;;;7.59;100.00
13734;BME280;43298;52.560;13.508;2023-02-13T09:41:47;103172.22;;;7.58;100.00
13734;BME280;43298;52.560;13.508;2023-02-13T09:44:22;103174.78;;;7.58;100.00
13734;BME280;43298;52.560;13.508;2023-02-13T09:49:43;103166.22;;;7.56;100.00
13734;BME280;43298;52.560;13.508;2023-02-13T09:52:10;103173.06;;;7.57;100.00
13734;BME280;43298;52.560;13.508;2023-02-13T09:54:36;103160.31;;;7.66;100.00
13734;BME280;43298;52.560;13.508;2023-02-13T09:57:24;103158.59;;;7.70;100.00
13734;BME280;43298;52.560;13.508;2023-02-13T10:00:15;103155.19;;;7.69;100.00
13734;BME280;43298;52.560;13.508;2023-02-13T10:02:52;103155.13;;;7.63;100.00
13734;BME280;43298;52.560;13.508;2023-02-13T10:08:26;103173.91;;;7.55;100.00
13734;BME280;43298;52.560;13.508;2023-02-13T10:14:15;103173.00;;;7.51;100.00
13734;BME280;43298;52.560;13.508;2023-02-13T10:16:59;103166.22;;;7.58;100.00
13734;BME280;43298;52.560;13.508;2023-02-13T10:22:30;103163.63;;;7.56;100.00
13734;BME280;43298;52.560;13.508;2023-02-13T10:25:09;103159.25;;;7.48;100.00
13734;BME280;43298;52.560;13.508;2023-02-13T10:27:53;103167.84;;;7.47;100.00
13734;BME280;43298;52.560;13.508;2023-02-13T10:30:31;103161.78;;;7.45;100.00
13734;BME280;43298;52.560;13.508;2023-02-13T10:33:47;103173.81;;;7.46;100.00
13734;BME280;43298;52.560;13.508;2023-02-13T10:36:21;103166.97;;;7.46;100.00
13734;BME280;43298;52.560;13.508;2023-02-13T10:45:00;103162.66;;;7.45;100.00
13734;BME280;43298;52.560;13.508;2023-02-13T10:47:47;103160.13;;;7.51;100.00
13734;BME280;43298;52.560;13.508;2023-02-13T10:53:37;103150.84;;;7.62;100.00
13734;BME280;43298;52.560;13.508;2023-02-13T10:56:25;103139.75;;;7.72;100.00
13734;BME280;43298;52.560;13.508;2023-02-13T10:59:24;103135.50;;;7.77;100.00
13734;BME280;43298;52.560;13.508;2023-02-13T11:02:27;103129.56;;;7.89;100.00
13734;BME280;43298;52.560;13.508;2023-02-13T11:05:18;103134.75;;;7.93;100.00
13734;BME280;43298;52.560;13.508;2023-02-13T11:07:46;103132.22;;;7.96;100.00
13734;BME280;43298;52.560;13.508;2023-02-13T11:10:18;103130.47;;;7.94;100.00
13734;BME280;43298;52.560;13.508;2023-02-13T11:12:45;103124.44;;;7.92;100.00
13734;BME280;43298;52.560;13.508;2023-02-13T11:15:23;103129.59;;;7.93;100.00
13734;BME280;43298;52.560;13.508;2023-02-13T11:17:52;103117.59;;;7.92;100.00
13734;BME280;43298;52.560;13.508;2023-02-13T11:20:38;103112.44;;;7.94;100.00
13734;BME280;43298;52.560;13.508;2023-02-13T11:28:43;103108.16;;;7.94;100.00
13734;BME280;43298;52.560;13.508;2023-02-13T11:31:30;103104.78;;;8.01;100.00
13734;BME280;43298;52.560;13.508;2023-02-13T11:33:59;103100.47;;;8.02;100.00
13734;BME280;43298;52.560;13.508;2023-02-13T11:36:42;103097.88;;;8.00;100.00
13734;BME280;43298;52.560;13.508;2023-02-13T11:39:22;103112.53;;;8.09;100.00
13734;BME280;43298;52.560;13.508;2023-02-13T11:41:50;103103.97;;;8.07;100.00
13734;BME280;43298;52.560;13.508;2023-02-13T11:44:35;103103.06;;;8.03;100.00
13734;BME280;43298;52.560;13.508;2023-02-13T11:47:01;103099.69;;;8.10;100.00
13734;BME280;43298;52.560;13.508;2023-02-13T11:49:31;103091.91;;;8.07;100.00
13734;BME280;43298;52.560;13.508;2023-02-13T11:52:31;103098.78;;;8.08;100.00
13734;BME280;43298;52.560;13.508;2023-02-13T11:55:27;103091.91;;;8.06;100.00
13734;BME280;43298;52.560;13.508;2023-02-13T11:58:24;103085.09;;;8.12;100.00
13734;BME280;43298;52.560;13.508;2023-02-13T12:00:48;103090.28;;;8.14;100.00
13734;BME280;43298;52.560;13.508;2023-02-13T12:08:37;103091.25;;;8.34;100.00
13734;BME280;43298;52.560;13.508;2023-02-13T12:13:51;103105.03;;;8.40;100.00
13734;BME280;43298;52.560;13.508;2023-02-13T12:16:56;103108.41;;;8.29;100.00
13734;BME280;43298;52.560;13.508;2023-02-13T12:19:41;103115.25;;;8.25;100.00
13734;BME280;43298;52.560;13.508;2023-02-13T12:28:25;103129.06;;;8.33;100.00
13734;BME280;43298;52.560;13.508;2023-02-13T12:31:14;103137.63;;;8.26;100.00
13734;BME280;43298;52.560;13.508;2023-02-13T12:37:26;103129.81;;;8.20;100.00
13734;BME280;43298;52.560;13.508;2023-02-13T12:46:23;103131.56;;;8.21;100.00
13734;BME280;43298;52.560;13.508;2023-02-13T12:55:39;103128.06;;;8.21;100.00
13734;BME280;43298;52.560;13.508;2023-02-13T13:07:04;103117.75;;;8.15;100.00
13734;BME280;43298;52.560;13.508;2023-02-13T13:15:51;103141.78;;;8.12;100.00
13734;BME280;43298;52.560;13.508;2023-02-13T13:26:50;103134.06;;;8.12;100.00
13734;BME280;43298;52.560;13.508;2023-02-13T13:29:32;103133.19;;;8.12;100.00
13734;BME280;43298;52.560;13.508;2023-02-13T13:32:07;103146.06;;;8.10;100.00
13734;BME280;43298;52.560;13.508;2023-02-13T13:34:34;103138.31;;;8.09;100.00
13734;BME280;43298;52.560;13.508;2023-02-13T13:37:39;103134.91;;;8.14;100.00
13734;BME280;43298;52.560;13.508;2023-02-13T13:40:55;103144.38;;;8.12;100.00
13734;BME280;43298;52.560;13.508;2023-02-13T13:49:48;103137.44;;;8.08;100.00
13734;BME280;43298;52.560;13.508;2023-02-13T13:52:36;103127.22;;;8.17;100.00
13734;BME280;43298;52.560;13.508;2023-02-13T13:55:03;103126.31;;;8.09;100.00
13734;BME280;43298;52.560;13.508;2023-02-13T14:03:22;103122.81;;;8.03;100.00
13734;BME280;43298;52.560;13.508;2023-02-13T14:06:16;103129.63;;;7.96;100.00
13734;BME280;43298;52.560;13.508;2023-02-13T14:11:37;103119.31;;;7.93;100.00
13734;BME280;43298;52.560;13.508;2023-02-13T14:17:01;103111.56;;;7.92;100.00
13734;BME280;43298;52.560;13.508;2023-02-13T14:19:38;103102.16;;;7.95;100.00
13734;BME280;43298;52.560;13.508;2023-02-13T14:25:06;103090.13;;;7.93;100.00
13734;BME280;43298;52.560;13.508;2023-02-13T14:28:02;103086.69;;;7.94;100.00
13734;BME280;43298;52.560;13.508;2023-02-13T14:30:36;103089.25;;;7.92;100.00
13734;BME280;43298;52.560;13.508;2023-02-13T14:33:07;103085.78;;;7.87;100.00
13734;BME280;43298;52.560;13.508;2023-02-13T14:35:36;103085.78;;;7.84;100.00
13734;BME280;43298;52.560;13.508;2023-02-13T14:38:06;103083.19;;;7.83;100.00
13734;BME280;43298;52.560;13.508;2023-02-13T14:40:51;103076.31;;;7.85;100.00
13734;BME280;43298;52.560;13.508;2023-02-13T14:43:27;103073.75;;;7.82;100.00
13734;BME280;43298;52.560;13.508;2023-02-13T14:46:35;103084.03;;;7.83;100.00
13734;BME280;43298;52.560;13.508;2023-02-13T14:49:31;103086.59;;;7.79;100.00
13734;BME280;43298;52.560;13.508;2023-02-13T14:52:38;103079.72;;;7.81;100.00
13734;BME280;43298;52.560;13.508;2023-02-13T14:55:13;103073.72;;;7.80;100.00
13734;BME280;43298;52.560;13.508;2023-02-13T14:57:50;103084.00;;;7.77;100.00
13734;BME280;43298;52.560;13.508;2023-02-13T15:00:24;103094.31;;;7.77;100.00
13734;BME280;43298;52.560;13.508;2023-02-13T15:03:03;103084.00;;;7.79;100.00
13734;BME280;43298;52.560;13.508;2023-02-13T15:05:34;103083.13;;;7.75;100.00
13734;BME280;43298;52.560;13.508;2023-02-13T15:08:20;103077.09;;;7.72;100.00
13734;BME280;43298;52.560;13.508;2023-02-13T15:10:52;103069.31;;;7.66;100.00
13734;BME280;43298;52.560;13.508;2023-02-13T15:13:25;103064.16;;;7.66;100.00
13734;BME280;43298;52.560;13.508;2023-02-13T15:16:02;103063.31;;;7.67;100.00
13734;BME280;43298;52.560;13.508;2023-02-13T15:18:38;103051.34;;;7.73;100.00
13734;BME280;43298;52.560;13.508;2023-02-13T15:21:05;103053.88;;;7.67;100.00